Terminal Aerodrome Forecast
Issued by NWS

Home | Current Version | Previous Version | Text Only | Print | Product List | Glossary Off
Versions: 1 2 3 4 5 6 7 8 9 10 11 12

000
FTUS43 KICT 081140
TAFHUT
TAF
KHUT 081140Z 0812/0912 23007KT P6SM BKN080
     FM081500 31009KT P6SM OVC100
     FM081800 34017G22KT P6SM BKN035
     FM082300 33007KT P6SM SCT035=

USA.gov is the U.S. government's official web portal to all federal, state and local government web resources and services.